Main page
METAR-TAF:

METAR-TAF

Airports :

Dr. Babasaheb Ambedkar International Airport

Nagpur, India

latitude: 21-06N, longitude: 079-03E, elevation: 308 m

Current weather observation

The report was made 25 minutes ago, at 03:30 UTC
Wind 3 kt from the Northeast
Temperature 22°C
Humidity 65%
Pressure 1018 hPa
Visibility: 2500 m
mist

METAR: VANP 150330Z 04003KT 2500 BR NSC 22/15 Q1018 BECMG 3000 HZ

Time: 09:25 (03:55 UTC)

Forecast

The report was made 1 hour and 55 minutes ago, at 02:00 UTC
Forecast valid from 15 at 03 UTC to 15 at 12 UTC
Wind 3 kt from the North/Northeast
Visibility: 2500 m
mist
Becoming
from 15 at 06 UTC to 15 at 08 UTC
Wind 5 kt from the North
Visibility: 4000 m
haze

TAF: VANP 150200Z 1503/1512 03003KT 2500 BR NSC BECMG 1506/1508 36005KT 4000 HZ NSC

Weather observations and forecasts of more than 4000 airports (METAR and TAF reports).

The available stations are represented by yellow and red dots on the map.

Hover mouse over dot to see the name of the station.

Then click to see weather observations and forecasts.

To change the map : click on the green buttons with a black cross to zoom in, on the green button with a dash to zoom out, or on the green arrows for adjacent maps.


METAR-TAF: